Flight Track Log - Related Links

Times and Time Zones

All times are in EDT time to prevent confusion due to time zone crossing. See the N133VU flight status page for this flight to view local times or setup timezone preferences in your user account.

Time Position Orientation Groundspeed Altitude Reporting Facility
EDT Latitude Longitude Course Direction KTS MPH feet Rate Location/Type
Thu 03:29:12 PM 41.1069 -85.2178 217° Southwest 93 107 2,500  Level Chicago Center
Thu 03:30:14 PM 41.1386 -85.2181 360° North 95 109 2,500 290 Level Chicago Center
Thu 03:31:16 PM 41.1394 -85.2317 275° West 91 105 3,100 576 Climbing Chicago Center
Thu 03:32:19 PM 41.1178 -85.2456 206° Southwest 89 102 3,700 484 Climbing Chicago Center
Thu 03:33:00 PM 40.8270 -85.3231 217° Southwest  Level FlightAware Approximate
Thu 03:33:20 PM 41.0939 -85.2592 203° Southwest 90 104 4,100  Level Chicago Center
Thu 03:34:00 PM 40.8037 -85.3463 217° Southwest  Level FlightAware Approximate
Thu 03:34:22 PM 41.0717 -85.2783 213° Southwest 92 106 4,700  Level Chicago Center
Thu 03:35:25 PM 41.0483 -85.2978 212° Southwest 95 109 5,100 432 Climbing Chicago Center
Thu 03:36:27 PM 41.0206 -85.3203 211° Southwest 97 112 5,600 484 Climbing Chicago Center
Thu 03:37:29 PM 40.9986 -85.3406 215° Southwest 89 102 6,100 387 Climbing Chicago Center
Thu 03:38:31 PM 40.9747 -85.3617 214° Southwest 101 116 6,400 387 Climbing Chicago Center
Thu 03:39:33 PM 40.9517 -85.3803 211° Southwest 104 120 6,900 387 Climbing Chicago Center
Thu 03:40:35 PM 40.9275 -85.4000 212° Southwest 100 115 7,200 290 Climbing Chicago Center
Thu 03:41:37 PM 40.9050 -85.4208 215° Southwest 98 113 7,500 387 Climbing Chicago Center
Thu 03:42:39 PM 40.8758 -85.4447 212° Southwest 104 120 8,000 288 Climbing Chicago Center
Thu 03:43:42 PM 40.8494 -85.4664 212° Southwest 117 135 8,100 55 Climbing Chicago Center
Thu 03:44:29 PM 40.8253 -85.4889 215° Southwest 120 138 8,100  Level Chicago Center
Thu 03:45:42 PM 40.7931 -85.5147 211° Southwest 113 130 8,100  Level Chicago Center
Thu 03:46:43 PM 40.7675 -85.5356 212° Southwest 115 132 8,100 -47 Level Chicago Center
Thu 03:47:50 PM 40.7339 -85.5594 208° Southwest 118 136 8,000 -47 Descending Chicago Center
Thu 03:48:50 PM 40.7058 -85.5819 211° Southwest 116 133 8,000 48 Level Chicago Center
Thu 03:49:54 PM 40.6794 -85.6019 210° Southwest 111 128 8,100 33 Climbing Chicago Center
Thu 03:51:52 PM 40.6289 -85.6497 216° Southwest 112 129 8,100  Level Chicago Center
Thu 03:52:52 PM 40.6011 -85.6758 216° Southwest 113 130 8,100 -50 Level Chicago Center
Thu 03:53:53 PM 40.5756 -85.6964 211° Southwest 116 133 8,000  Descending Chicago Center
Thu 03:54:47 PM 40.5478 -85.7197 213° Southwest 117 135 8,100 45 Climbing Chicago Center
Thu 03:56:07 PM 40.5175 -85.7450 212° Southwest 116 133 8,100 -211 Level Chicago Center
Thu 03:57:09 PM 40.4819 -85.7744 212° Southwest 126 145 7,600 -474 Descending Chicago Center
Thu 03:58:01 PM 40.4514 -85.7997 212° Southwest 136 157 7,200 -531 Descending Chicago Center
Thu 03:59:02 PM 40.4217 -85.8256 213° Southwest 138 159 6,600 -541 Descending Chicago Center
Thu 04:00:03 PM 40.3872 -85.8539 212° Southwest 137 158 6,100 -495 Descending Chicago Center
Thu 04:00:39 PM 40.3719 -85.8681 215° Southwest 137 158 5,800 -486 Descending Indianapolis Center
Thu 04:01:17 PM 40.3514 -85.8814 206° Southwest 138 159 5,500 -565 Descending Chicago Center
Thu 04:02:04 PM 40.3211 -85.9078 214° Southwest 139 160 5,000 -690 Descending Chicago Center
Thu 04:03:10 PM 40.2869 -85.9358 212° Southwest 134 154 4,200 -429 Descending Chicago Center
Thu 04:04:24 PM 40.2531 -85.9636 212° Southwest 129 148 4,000 -88 Descending Chicago Center
Thu 04:05:26 PM 40.2267 -85.9844 211° Southwest 121 139 4,000  Level Chicago Center
Thu 04:06:28 PM 40.2011 -86.0042 211° Southwest 113 130 4,000  Level Chicago Center
Thu 04:07:30 PM 40.1756 -86.0256 213° Southwest 110 127 4,000  Level Chicago Center
Thu 04:08:32 PM 40.1486 -86.0481 213° Southwest 112 129 4,000 -163 Level Chicago Center
Thu 04:13:38 PM 40.0130 -86.1820 213° Southwest 119 137 3,000 -216 Descending FlightAware ADS-B
Thu 04:14:06 PM 39.9990 -86.1910 206° Southwest 125 144 2,800 -450 Descending FlightAware ADS-B
Thu 04:14:18 PM 39.9930 -86.1940 201° Southwest 125 144 2,700 -143 Descending FlightAware ADS-B
Thu 04:14:48 PM 39.9770 -86.2040 206° Southwest 110 127 2,700  Level FlightAware ADS-B
Thu 04:15:14 PM 39.9660 -86.2110 206° Southwest 109 125 2,700  Level FlightAware ADS-B
Thu 04:15:42 PM 39.9530 -86.2190 205° Southwest 111 128 2,700 -107 Level FlightAware ADS-B
Thu 04:16:10 PM 39.9390 -86.2270 204° Southwest 107 123 2,600 -107 Descending FlightAware ADS-B
Thu 04:16:38 PM 39.9260 -86.2350 205° Southwest 107 123 2,600  Level FlightAware ADS-B
Thu 04:17:06 PM 39.9140 -86.2430 207° Southwest 114 131 2,600 -214 Level FlightAware ADS-B
Thu 04:17:34 PM 39.8990 -86.2520 205° Southwest 129 148 2,400 -536 Descending FlightAware ADS-B
Thu 04:18:02 PM 39.8840 -86.2610 205° Southwest 124 143 2,100 -421 Descending FlightAware ADS-B
Thu 04:18:31 PM 39.8710 -86.2690 205° Southwest 113 130 2,000 -273 Descending FlightAware ADS-B
Thu 04:18:46 PM 39.8650 -86.2790 232° Southwest 108 124 1,900 -140 Descending FlightAware ADS-B
Thu 04:19:14 PM 39.8580 -86.2950 240° Southwest 106 122 1,900  Level FlightAware ADS-B
Thu 04:19:26 PM 39.8550 -86.3020 241° Southwest 106 122 1,900  Level FlightAware ADS-B
Thu 04:19:42 PM 39.8480 -86.3080 213° Southwest 114 131 1,900  Level FlightAware ADS-B
Thu 04:19:54 PM 39.8430 -86.3120 212° Southwest 112 129 1,900  Level FlightAware ADS-B
Thu 04:20:16 PM 39.8340 -86.3180 207° Southwest 92 106 1,900 -254 Level FlightAware ADS-B
Thu 04:21:05 PM 39.8180 -86.3190 183° South 92 106 1,600 -457 Descending FlightAware ADS-B
Thu 04:21:48 PM 39.8190 -86.3010 86° East 63 72 1,200 -414 Descending FlightAware ADS-B
Thu 04:22:32 PM 39.8310 -86.2950 21° North 68 78 1,000 -273 Descending FlightAware ADS-B

Login

Don't have an account? Register now (free) for customized features, flight alerts, and more!